sensor_id;sensor_type;location;lat;lon;timestamp;temperature;humidity
26037;DHT22;13810;48.376;10.944;2022-11-20T00:00:08;5.50;99.90
26037;DHT22;13810;48.376;10.944;2022-11-20T00:00:39;5.50;99.90
26037;DHT22;13810;48.376;10.944;2022-11-20T00:01:43;5.50;99.90
26037;DHT22;13810;48.376;10.944;2022-11-20T00:02:20;5.50;99.90
26037;DHT22;13810;48.376;10.944;2022-11-20T00:02:51;5.50;99.90
26037;DHT22;13810;48.376;10.944;2022-11-20T00:03:24;5.60;99.90
26037;DHT22;13810;48.376;10.944;2022-11-20T00:03:57;5.60;99.90
26037;DHT22;13810;48.376;10.944;2022-11-20T00:04:30;5.60;99.90
26037;DHT22;13810;48.376;10.944;2022-11-20T00:05:04;5.50;99.90
26037;DHT22;13810;48.376;10.944;2022-11-20T00:05:34;5.50;99.90
26037;DHT22;13810;48.376;10.944;2022-11-20T00:06:08;5.60;99.90
26037;DHT22;13810;48.376;10.944;2022-11-20T00:06:40;5.60;99.90
26037;DHT22;13810;48.376;10.944;2022-11-20T00:07:10;5.60;99.90
26037;DHT22;13810;48.376;10.944;2022-11-20T00:07:41;5.50;99.90
26037;DHT22;13810;48.376;10.944;2022-11-20T00:08:12;5.50;99.90
26037;DHT22;13810;48.376;10.944;2022-11-20T00:08:45;5.50;99.90
26037;DHT22;13810;48.376;10.944;2022-11-20T00:09:18;5.50;99.90
26037;DHT22;13810;48.376;10.944;2022-11-20T00:09:49;5.50;99.90
26037;DHT22;13810;48.376;10.944;2022-11-20T00:10:20;5.50;99.90
26037;DHT22;13810;48.376;10.944;2022-11-20T00:10:51;5.50;99.90
26037;DHT22;13810;48.376;10.944;2022-11-20T00:11:24;5.50;99.90
26037;DHT22;13810;48.376;10.944;2022-11-20T00:11:58;5.50;99.90
26037;DHT22;13810;48.376;10.944;2022-11-20T00:12:29;5.50;99.90
26037;DHT22;13810;48.376;10.944;2022-11-20T00:13:00;5.50;99.90
26037;DHT22;13810;48.376;10.944;2022-11-20T00:13:31;5.50;99.90
26037;DHT22;13810;48.376;10.944;2022-11-20T00:14:02;5.50;99.90
26037;DHT22;13810;48.376;10.944;2022-11-20T00:14:33;5.50;99.90
26037;DHT22;13810;48.376;10.944;2022-11-20T00:15:04;5.50;99.90
26037;DHT22;13810;48.376;10.944;2022-11-20T00:15:35;5.50;99.90
26037;DHT22;13810;48.376;10.944;2022-11-20T00:16:09;5.50;99.90
26037;DHT22;13810;48.376;10.944;2022-11-20T00:16:40;5.50;99.90
26037;DHT22;13810;48.376;10.944;2022-11-20T00:17:10;5.50;99.90
26037;DHT22;13810;48.376;10.944;2022-11-20T00:17:41;5.50;99.90
26037;DHT22;13810;48.376;10.944;2022-11-20T00:18:12;5.50;99.90
26037;DHT22;13810;48.376;10.944;2022-11-20T00:18:43;5.50;99.90
26037;DHT22;13810;48.376;10.944;2022-11-20T00:19:15;5.50;99.90
26037;DHT22;13810;48.376;10.944;2022-11-20T00:19:46;5.40;99.90
26037;DHT22;13810;48.376;10.944;2022-11-20T00:20:16;5.40;99.90
26037;DHT22;13810;48.376;10.944;2022-11-20T00:20:49;5.50;99.90
26037;DHT22;13810;48.376;10.944;2022-11-20T00:21:22;5.50;99.90
26037;DHT22;13810;48.376;10.944;2022-11-20T00:21:53;5.40;99.90
26037;DHT22;13810;48.376;10.944;2022-11-20T00:22:25;5.50;99.90
26037;DHT22;13810;48.376;10.944;2022-11-20T00:22:56;5.50;99.90
26037;DHT22;13810;48.376;10.944;2022-11-20T00:23:27;5.50;99.90
26037;DHT22;13810;48.376;10.944;2022-11-20T00:23:58;5.50;99.90
26037;DHT22;13810;48.376;10.944;2022-11-20T00:24:29;5.50;99.90
26037;DHT22;13810;48.376;10.944;2022-11-20T00:25:00;5.50;99.90
26037;DHT22;13810;48.376;10.944;2022-11-20T00:25:31;5.40;99.90
26037;DHT22;13810;48.376;10.944;2022-11-20T00:26:09;5.50;99.90
26037;DHT22;13810;48.376;10.944;2022-11-20T00:26:41;5.50;99.90
26037;DHT22;13810;48.376;10.944;2022-11-20T00:27:12;5.40;99.90
26037;DHT22;13810;48.376;10.944;2022-11-20T00:27:43;5.40;99.90
26037;DHT22;13810;48.376;10.944;2022-11-20T00:28:13;5.40;99.90
26037;DHT22;13810;48.376;10.944;2022-11-20T00:28:49;5.40;99.90
26037;DHT22;13810;48.376;10.944;2022-11-20T00:29:23;5.40;99.90
26037;DHT22;13810;48.376;10.944;2022-11-20T00:29:54;5.50;99.90
26037;DHT22;13810;48.376;10.944;2022-11-20T00:30:25;5.40;99.90
26037;DHT22;13810;48.376;10.944;2022-11-20T00:31:39;5.50;99.90
26037;DHT22;13810;48.376;10.944;2022-11-20T00:32:10;5.40;99.90
26037;DHT22;13810;48.376;10.944;2022-11-20T00:32:40;5.40;99.90
26037;DHT22;13810;48.376;10.944;2022-11-20T00:33:11;5.40;99.90
26037;DHT22;13810;48.376;10.944;2022-11-20T00:33:43;5.40;99.90
26037;DHT22;13810;48.376;10.944;2022-11-20T00:34:14;5.40;99.90
26037;DHT22;13810;48.376;10.944;2022-11-20T00:34:47;5.40;99.90
26037;DHT22;13810;48.376;10.944;2022-11-20T00:35:20;5.50;99.90
26037;DHT22;13810;48.376;10.944;2022-11-20T00:35:53;5.40;99.90
26037;DHT22;13810;48.376;10.944;2022-11-20T00:36:26;5.40;99.90
26037;DHT22;13810;48.376;10.944;2022-11-20T00:37:00;5.40;99.90
26037;DHT22;13810;48.376;10.944;2022-11-20T00:37:33;5.40;99.90
26037;DHT22;13810;48.376;10.944;2022-11-20T00:38:04;5.40;99.90
26037;DHT22;13810;48.376;10.944;2022-11-20T00:38:34;5.40;99.90
26037;DHT22;13810;48.376;10.944;2022-11-20T00:39:05;5.40;99.90
26037;DHT22;13810;48.376;10.944;2022-11-20T00:39:36;5.40;99.90
26037;DHT22;13810;48.376;10.944;2022-11-20T00:40:07;5.40;99.90
26037;DHT22;13810;48.376;10.944;2022-11-20T00:40:38;5.40;99.90
26037;DHT22;13810;48.376;10.944;2022-11-20T00:41:10;5.40;99.90
26037;DHT22;13810;48.376;10.944;2022-11-20T00:41:41;5.40;99.90
26037;DHT22;13810;48.376;10.944;2022-11-20T00:42:12;5.40;99.90
26037;DHT22;13810;48.376;10.944;2022-11-20T00:42:43;5.40;99.90
26037;DHT22;13810;48.376;10.944;2022-11-20T00:43:13;5.40;99.90
26037;DHT22;13810;48.376;10.944;2022-11-20T00:43:44;5.40;99.90
26037;DHT22;13810;48.376;10.944;2022-11-20T00:44:15;5.40;99.90
26037;DHT22;13810;48.376;10.944;2022-11-20T00:44:51;5.30;99.90
26037;DHT22;13810;48.376;10.944;2022-11-20T00:45:21;5.30;99.90
26037;DHT22;13810;48.376;10.944;2022-11-20T00:46:02;5.30;99.90
26037;DHT22;13810;48.376;10.944;2022-11-20T00:46:33;5.40;99.90
26037;DHT22;13810;48.376;10.944;2022-11-20T00:47:04;5.30;99.90
26037;DHT22;13810;48.376;10.944;2022-11-20T00:47:35;5.40;99.90
26037;DHT22;13810;48.376;10.944;2022-11-20T00:48:05;5.30;99.90
26037;DHT22;13810;48.376;10.944;2022-11-20T00:48:36;5.30;99.90
26037;DHT22;13810;48.376;10.944;2022-11-20T00:49:07;5.40;99.90
26037;DHT22;13810;48.376;10.944;2022-11-20T00:49:38;5.30;99.90
26037;DHT22;13810;48.376;10.944;2022-11-20T00:50:09;5.30;99.90
26037;DHT22;13810;48.376;10.944;2022-11-20T00:50:42;5.30;99.90
26037;DHT22;13810;48.376;10.944;2022-11-20T00:51:14;5.30;99.90
26037;DHT22;13810;48.376;10.944;2022-11-20T00:51:45;5.30;99.90
26037;DHT22;13810;48.376;10.944;2022-11-20T00:52:16;5.30;99.90
26037;DHT22;13810;48.376;10.944;2022-11-20T00:52:47;5.30;99.90
26037;DHT22;13810;48.376;10.944;2022-11-20T00:53:18;5.40;99.90
26037;DHT22;13810;48.376;10.944;2022-11-20T00:53:48;5.30;99.90
26037;DHT22;13810;48.376;10.944;2022-11-20T00:54:19;5.30;99.90
26037;DHT22;13810;48.376;10.944;2022-11-20T00:54:50;5.30;99.90
26037;DHT22;13810;48.376;10.944;2022-11-20T00:55:21;5.30;99.90
26037;DHT22;13810;48.376;10.944;2022-11-20T00:56:00;5.30;99.90
26037;DHT22;13810;48.376;10.944;2022-11-20T00:56:31;5.30;99.90
26037;DHT22;13810;48.376;10.944;2022-11-20T00:57:02;5.30;99.90
26037;DHT22;13810;48.376;10.944;2022-11-20T00:57:32;5.30;99.90
26037;DHT22;13810;48.376;10.944;2022-11-20T00:58:03;5.30;99.90
26037;DHT22;13810;48.376;10.944;2022-11-20T00:58:36;5.30;99.90
26037;DHT22;13810;48.376;10.944;2022-11-20T00:59:08;5.30;99.90
26037;DHT22;13810;48.376;10.944;2022-11-20T00:59:39;5.30;99.90
26037;DHT22;13810;48.376;10.944;2022-11-20T01:00:10;5.30;99.90
26037;DHT22;13810;48.376;10.944;2022-11-20T01:00:41;5.30;99.90
26037;DHT22;13810;48.376;10.944;2022-11-20T01:01:44;5.40;99.90
26037;DHT22;13810;48.376;10.944;2022-11-20T01:02:14;5.30;99.90
26037;DHT22;13810;48.376;10.944;2022-11-20T01:02:46;5.40;99.90
26037;DHT22;13810;48.376;10.944;2022-11-20T01:03:18;5.30;99.90
26037;DHT22;13810;48.376;10.944;2022-11-20T01:03:50;5.30;99.90
26037;DHT22;13810;48.376;10.944;2022-11-20T01:04:21;5.30;99.90
26037;DHT22;13810;48.376;10.944;2022-11-20T01:04:52;5.30;99.90
26037;DHT22;13810;48.376;10.944;2022-11-20T01:05:22;5.30;99.90
26037;DHT22;13810;48.376;10.944;2022-11-20T01:05:53;5.30;99.90
26037;DHT22;13810;48.376;10.944;2022-11-20T01:06:34;5.30;99.90
26037;DHT22;13810;48.376;10.944;2022-11-20T01:07:05;5.30;99.90
26037;DHT22;13810;48.376;10.944;2022-11-20T01:07:36;5.30;99.90
26037;DHT22;13810;48.376;10.944;2022-11-20T01:08:07;5.30;99.90
26037;DHT22;13810;48.376;10.944;2022-11-20T01:08:38;5.30;99.90
26037;DHT22;13810;48.376;10.944;2022-11-20T01:09:12;5.30;99.90
26037;DHT22;13810;48.376;10.944;2022-11-20T01:09:42;5.30;99.90
26037;DHT22;13810;48.376;10.944;2022-11-20T01:10:13;5.30;99.90
26037;DHT22;13810;48.376;10.944;2022-11-20T01:10:44;5.30;99.90
26037;DHT22;13810;48.376;10.944;2022-11-20T01:11:17;5.30;99.90
26037;DHT22;13810;48.376;10.944;2022-11-20T01:11:48;5.30;99.90
26037;DHT22;13810;48.376;10.944;2022-11-20T01:12:19;5.20;99.90
26037;DHT22;13810;48.376;10.944;2022-11-20T01:12:50;5.30;99.90
26037;DHT22;13810;48.376;10.944;2022-11-20T01:13:42;5.30;99.90
26037;DHT22;13810;48.376;10.944;2022-11-20T01:14:21;5.20;99.90
26037;DHT22;13810;48.376;10.944;2022-11-20T01:14:52;5.20;99.90
26037;DHT22;13810;48.376;10.944;2022-11-20T01:15:23;5.20;99.90
26037;DHT22;13810;48.376;10.944;2022-11-20T01:15:53;5.20;99.90
26037;DHT22;13810;48.376;10.944;2022-11-20T01:16:27;5.20;99.90
26037;DHT22;13810;48.376;10.944;2022-11-20T01:16:58;5.20;99.90
26037;DHT22;13810;48.376;10.944;2022-11-20T01:17:31;5.20;99.90
26037;DHT22;13810;48.376;10.944;2022-11-20T01:18:02;5.20;99.90
26037;DHT22;13810;48.376;10.944;2022-11-20T01:18:34;5.20;99.90
26037;DHT22;13810;48.376;10.944;2022-11-20T01:19:09;5.30;99.90
26037;DHT22;13810;48.376;10.944;2022-11-20T01:19:41;5.20;99.90
26037;DHT22;13810;48.376;10.944;2022-11-20T01:20:12;5.20;99.90
26037;DHT22;13810;48.376;10.944;2022-11-20T01:20:42;5.20;99.90
26037;DHT22;13810;48.376;10.944;2022-11-20T01:21:30;5.20;99.90
26037;DHT22;13810;48.376;10.944;2022-11-20T01:22:01;5.20;99.90
26037;DHT22;13810;48.376;10.944;2022-11-20T01:22:32;5.20;99.90
26037;DHT22;13810;48.376;10.944;2022-11-20T01:23:04;5.20;99.90
26037;DHT22;13810;48.376;10.944;2022-11-20T01:23:36;5.30;99.90
26037;DHT22;13810;48.376;10.944;2022-11-20T01:24:11;5.20;99.90
26037;DHT22;13810;48.376;10.944;2022-11-20T01:24:42;5.20;99.90
26037;DHT22;13810;48.376;10.944;2022-11-20T01:25:12;5.30;99.90
26037;DHT22;13810;48.376;10.944;2022-11-20T01:25:43;5.20;99.90
26037;DHT22;13810;48.376;10.944;2022-11-20T01:26:21;5.20;99.90
26037;DHT22;13810;48.376;10.944;2022-11-20T01:26:52;5.20;99.90
26037;DHT22;13810;48.376;10.944;2022-11-20T01:27:23;5.30;99.90
26037;DHT22;13810;48.376;10.944;2022-11-20T01:27:53;5.30;99.90
26037;DHT22;13810;48.376;10.944;2022-11-20T01:28:24;5.30;99.90
26037;DHT22;13810;48.376;10.944;2022-11-20T01:28:55;5.30;99.90
26037;DHT22;13810;48.376;10.944;2022-11-20T01:29:26;5.30;99.90
26037;DHT22;13810;48.376;10.944;2022-11-20T01:29:57;5.30;99.90
26037;DHT22;13810;48.376;10.944;2022-11-20T01:30:28;5.30;99.90
26037;DHT22;13810;48.376;10.944;2022-11-20T01:30:59;5.30;99.90
26037;DHT22;13810;48.376;10.944;2022-11-20T01:31:35;5.30;99.90
26037;DHT22;13810;48.376;10.944;2022-11-20T01:32:05;5.30;99.90
26037;DHT22;13810;48.376;10.944;2022-11-20T01:32:36;5.30;99.90
26037;DHT22;13810;48.376;10.944;2022-11-20T01:33:07;5.30;99.90
26037;DHT22;13810;48.376;10.944;2022-11-20T01:33:39;5.30;99.90
26037;DHT22;13810;48.376;10.944;2022-11-20T01:34:12;5.30;99.90
26037;DHT22;13810;48.376;10.944;2022-11-20T01:34:45;5.30;99.90
26037;DHT22;13810;48.376;10.944;2022-11-20T01:35:18;5.30;99.90
26037;DHT22;13810;48.376;10.944;2022-11-20T01:35:48;5.30;99.90
26037;DHT22;13810;48.376;10.944;2022-11-20T01:36:21;5.30;99.90
26037;DHT22;13810;48.376;10.944;2022-11-20T01:36:52;5.30;99.90
26037;DHT22;13810;48.376;10.944;2022-11-20T01:37:23;5.30;99.90
26037;DHT22;13810;48.376;10.944;2022-11-20T01:37:54;5.30;99.90
26037;DHT22;13810;48.376;10.944;2022-11-20T01:38:25;5.30;99.90
26037;DHT22;13810;48.376;10.944;2022-11-20T01:38:58;5.30;99.90
26037;DHT22;13810;48.376;10.944;2022-11-20T01:39:29;5.30;99.90
26037;DHT22;13810;48.376;10.944;2022-11-20T01:40:00;5.30;99.90
26037;DHT22;13810;48.376;10.944;2022-11-20T01:40:30;5.30;99.90
26037;DHT22;13810;48.376;10.944;2022-11-20T01:41:01;5.30;99.90
26037;DHT22;13810;48.376;10.944;2022-11-20T01:41:34;5.30;99.90
26037;DHT22;13810;48.376;10.944;2022-11-20T01:42:24;5.30;99.90
26037;DHT22;13810;48.376;10.944;2022-11-20T01:43:19;5.30;99.90
26037;DHT22;13810;48.376;10.944;2022-11-20T01:43:53;5.20;99.90
26037;DHT22;13810;48.376;10.944;2022-11-20T01:44:50;5.20;99.90
26037;DHT22;13810;48.376;10.944;2022-11-20T01:46:29;5.20;99.90
26037;DHT22;13810;48.376;10.944;2022-11-20T01:47:08;5.10;99.90
26037;DHT22;13810;48.376;10.944;2022-11-20T01:47:44;5.10;99.90
26037;DHT22;13810;48.376;10.944;2022-11-20T01:48:16;5.10;99.90
26037;DHT22;13810;48.376;10.944;2022-11-20T01:49:38;5.00;99.90
26037;DHT22;13810;48.376;10.944;2022-11-20T01:50:46;5.00;99.90
26037;DHT22;13810;48.376;10.944;2022-11-20T01:51:26;5.00;99.90
26037;DHT22;13810;48.376;10.944;2022-11-20T01:52:20;5.00;99.90
26037;DHT22;13810;48.376;10.944;2022-11-20T01:53:31;4.90;99.90
26037;DHT22;13810;48.376;10.944;2022-11-20T01:54:09;4.90;99.90
26037;DHT22;13810;48.376;10.944;2022-11-20T01:54:50;4.90;99.90
26037;DHT22;13810;48.376;10.944;2022-11-20T01:55:25;4.90;99.90
26037;DHT22;13810;48.376;10.944;2022-11-20T01:56:00;4.90;99.90
26037;DHT22;13810;48.376;10.944;2022-11-20T01:56:35;4.90;99.90
26037;DHT22;13810;48.376;10.944;2022-11-20T01:57:09;4.80;99.90
26037;DHT22;13810;48.376;10.944;2022-11-20T01:57:41;4.80;99.90
26037;DHT22;13810;48.376;10.944;2022-11-20T01:58:12;4.80;99.90
26037;DHT22;13810;48.376;10.944;2022-11-20T01:58:50;4.80;99.90
26037;DHT22;13810;48.376;10.944;2022-11-20T01:59:23;4.80;99.90
26037;DHT22;13810;48.376;10.944;2022-11-20T02:00:00;4.80;99.90
26037;DHT22;13810;48.376;10.944;2022-11-20T02:00:32;4.80;99.90
26037;DHT22;13810;48.376;10.944;2022-11-20T02:01:03;4.70;99.90
26037;DHT22;13810;48.376;10.944;2022-11-20T02:01:34;4.70;99.90
26037;DHT22;13810;48.376;10.944;2022-11-20T02:02:05;4.70;99.90
26037;DHT22;13810;48.376;10.944;2022-11-20T02:02:37;4.70;99.90
26037;DHT22;13810;48.376;10.944;2022-11-20T02:03:11;4.70;99.90
26037;DHT22;13810;48.376;10.944;2022-11-20T02:03:44;4.70;99.90
26037;DHT22;13810;48.376;10.944;2022-11-20T02:04:15;4.60;99.90
26037;DHT22;13810;48.376;10.944;2022-11-20T02:04:47;4.60;99.90
26037;DHT22;13810;48.376;10.944;2022-11-20T02:06:48;4.60;99.90
26037;DHT22;13810;48.376;10.944;2022-11-20T02:07:20;4.60;99.90
26037;DHT22;13810;48.376;10.944;2022-11-20T02:07:52;4.60;99.90
26037;DHT22;13810;48.376;10.944;2022-11-20T02:08:24;4.60;99.90
26037;DHT22;13810;48.376;10.944;2022-11-20T02:08:55;4.50;99.90
26037;DHT22;13810;48.376;10.944;2022-11-20T02:09:26;4.50;99.90
26037;DHT22;13810;48.376;10.944;2022-11-20T02:09:57;4.50;99.90
26037;DHT22;13810;48.376;10.944;2022-11-20T02:10:28;4.50;99.90
26037;DHT22;13810;48.376;10.944;2022-11-20T02:10:59;4.50;99.90
26037;DHT22;13810;48.376;10.944;2022-11-20T02:11:31;4.60;99.90
26037;DHT22;13810;48.376;10.944;2022-11-20T02:12:03;4.60;99.90
26037;DHT22;13810;48.376;10.944;2022-11-20T02:12:33;4.60;99.90
26037;DHT22;13810;48.376;10.944;2022-11-20T02:13:23;4.60;99.90
26037;DHT22;13810;48.376;10.944;2022-11-20T02:14:14;4.60;99.90
26037;DHT22;13810;48.376;10.944;2022-11-20T02:14:45;4.60;99.90
26037;DHT22;13810;48.376;10.944;2022-11-20T02:15:15;4.60;99.90
26037;DHT22;13810;48.376;10.944;2022-11-20T02:15:46;4.60;99.90
26037;DHT22;13810;48.376;10.944;2022-11-20T02:16:51;4.60;99.90
26037;DHT22;13810;48.376;10.944;2022-11-20T02:17:23;4.60;99.90
26037;DHT22;13810;48.376;10.944;2022-11-20T02:17:54;4.60;99.90
26037;DHT22;13810;48.376;10.944;2022-11-20T02:18:24;4.60;99.90
26037;DHT22;13810;48.376;10.944;2022-11-20T02:18:58;4.60;99.90
26037;DHT22;13810;48.376;10.944;2022-11-20T02:19:31;4.60;99.90
26037;DHT22;13810;48.376;10.944;2022-11-20T02:20:02;4.60;99.90
26037;DHT22;13810;48.376;10.944;2022-11-20T02:20:33;4.60;99.90
26037;DHT22;13810;48.376;10.944;2022-11-20T02:22:20;4.60;99.90
26037;DHT22;13810;48.376;10.944;2022-11-20T02:23:03;4.60;99.90
26037;DHT22;13810;48.376;10.944;2022-11-20T02:23:41;4.60;99.90
26037;DHT22;13810;48.376;10.944;2022-11-20T02:24:18;4.60;99.90
26037;DHT22;13810;48.376;10.944;2022-11-20T02:24:50;4.60;99.90
26037;DHT22;13810;48.376;10.944;2022-11-20T02:25:21;4.60;99.90
26037;DHT22;13810;48.376;10.944;2022-11-20T02:25:54;4.60;99.90
26037;DHT22;13810;48.376;10.944;2022-11-20T02:26:28;4.60;99.90
26037;DHT22;13810;48.376;10.944;2022-11-20T02:27:10;4.60;99.90
26037;DHT22;13810;48.376;10.944;2022-11-20T02:27:43;4.60;99.90
26037;DHT22;13810;48.376;10.944;2022-11-20T02:28:14;4.60;99.90
26037;DHT22;13810;48.376;10.944;2022-11-20T02:28:45;4.60;99.90
26037;DHT22;13810;48.376;10.944;2022-11-20T02:29:19;4.60;99.90
26037;DHT22;13810;48.376;10.944;2022-11-20T02:30:04;4.50;99.90
26037;DHT22;13810;48.376;10.944;2022-11-20T02:30:37;4.60;99.90
26037;DHT22;13810;48.376;10.944;2022-11-20T02:31:08;4.60;99.90
26037;DHT22;13810;48.376;10.944;2022-11-20T02:31:43;4.60;99.90
26037;DHT22;13810;48.376;10.944;2022-11-20T02:32:30;4.60;99.90
26037;DHT22;13810;48.376;10.944;2022-11-20T02:33:01;4.60;99.90
26037;DHT22;13810;48.376;10.944;2022-11-20T02:33:31;4.60;99.90
26037;DHT22;13810;48.376;10.944;2022-11-20T02:34:02;4.60;99.90
26037;DHT22;13810;48.376;10.944;2022-11-20T02:34:35;4.60;99.90
26037;DHT22;13810;48.376;10.944;2022-11-20T02:36:00;4.60;99.90
26037;DHT22;13810;48.376;10.944;2022-11-20T02:36:32;4.60;99.90
26037;DHT22;13810;48.376;10.944;2022-11-20T02:37:03;4.60;99.90
26037;DHT22;13810;48.376;10.944;2022-11-20T02:37:36;4.60;99.90
26037;DHT22;13810;48.376;10.944;2022-11-20T02:38:08;4.60;99.90
26037;DHT22;13810;48.376;10.944;2022-11-20T02:38:39;4.60;99.90
26037;DHT22;13810;48.376;10.944;2022-11-20T02:39:13;4.60;99.90
26037;DHT22;13810;48.376;10.944;2022-11-20T02:39:49;4.60;99.90
26037;DHT22;13810;48.376;10.944;2022-11-20T02:40:21;4.60;99.90
26037;DHT22;13810;48.376;10.944;2022-11-20T02:40:52;4.50;99.90
26037;DHT22;13810;48.376;10.944;2022-11-20T02:41:33;4.60;99.90
26037;DHT22;13810;48.376;10.944;2022-11-20T02:42:05;4.50;99.90
26037;DHT22;13810;48.376;10.944;2022-11-20T02:42:36;4.50;99.90
26037;DHT22;13810;48.376;10.944;2022-11-20T02:43:08;4.50;99.90
26037;DHT22;13810;48.376;10.944;2022-11-20T02:43:38;4.50;99.90
26037;DHT22;13810;48.376;10.944;2022-11-20T02:44:09;4.50;99.90
26037;DHT22;13810;48.376;10.944;2022-11-20T02:44:40;4.50;99.90
26037;DHT22;13810;48.376;10.944;2022-11-20T02:45:11;4.50;99.90
26037;DHT22;13810;48.376;10.944;2022-11-20T02:45:42;4.50;99.90
26037;DHT22;13810;48.376;10.944;2022-11-20T02:46:13;4.50;99.90
26037;DHT22;13810;48.376;10.944;2022-11-20T02:46:44;4.50;99.90
26037;DHT22;13810;48.376;10.944;2022-11-20T02:47:15;4.50;99.90
26037;DHT22;13810;48.376;10.944;2022-11-20T02:47:45;4.50;99.90
26037;DHT22;13810;48.376;10.944;2022-11-20T02:48:16;4.50;99.90
26037;DHT22;13810;48.376;10.944;2022-11-20T02:48:47;4.50;99.90
26037;DHT22;13810;48.376;10.944;2022-11-20T02:49:18;4.50;99.90
26037;DHT22;13810;48.376;10.944;2022-11-20T02:49:48;4.50;99.90
26037;DHT22;13810;48.376;10.944;2022-11-20T02:50:19;4.50;99.90
26037;DHT22;13810;48.376;10.944;2022-11-20T02:50:50;4.50;99.90
26037;DHT22;13810;48.376;10.944;2022-11-20T02:51:21;4.50;99.90
26037;DHT22;13810;48.376;10.944;2022-11-20T02:51:52;4.50;99.90
26037;DHT22;13810;48.376;10.944;2022-11-20T02:52:23;4.50;99.90
26037;DHT22;13810;48.376;10.944;2022-11-20T02:52:54;4.50;99.90
26037;DHT22;13810;48.376;10.944;2022-11-20T02:53:25;4.60;99.90
26037;DHT22;13810;48.376;10.944;2022-11-20T02:53:55;4.50;99.90
26037;DHT22;13810;48.376;10.944;2022-11-20T02:54:26;4.50;99.90
26037;DHT22;13810;48.376;10.944;2022-11-20T02:54:57;4.50;99.90
26037;DHT22;13810;48.376;10.944;2022-11-20T02:55:28;4.50;99.90
26037;DHT22;13810;48.376;10.944;2022-11-20T02:55:58;4.50;99.90
26037;DHT22;13810;48.376;10.944;2022-11-20T02:56:29;4.50;99.90
26037;DHT22;13810;48.376;10.944;2022-11-20T02:57:00;4.50;99.90
26037;DHT22;13810;48.376;10.944;2022-11-20T02:57:31;4.50;99.90
26037;DHT22;13810;48.376;10.944;2022-11-20T02:58:01;4.50;99.90
26037;DHT22;13810;48.376;10.944;2022-11-20T02:58:32;4.50;99.90
26037;DHT22;13810;48.376;10.944;2022-11-20T02:59:03;4.50;99.90
26037;DHT22;13810;48.376;10.944;2022-11-20T02:59:33;4.50;99.90
26037;DHT22;13810;48.376;10.944;2022-11-20T03:00:05;4.50;99.90
26037;DHT22;13810;48.376;10.944;2022-11-20T03:00:38;4.50;99.90
26037;DHT22;13810;48.376;10.944;2022-11-20T03:01:09;4.50;99.90
26037;DHT22;13810;48.376;10.944;2022-11-20T03:01:40;4.50;99.90
26037;DHT22;13810;48.376;10.944;2022-11-20T03:02:10;4.60;99.90
26037;DHT22;13810;48.376;10.944;2022-11-20T03:02:41;4.60;99.90
26037;DHT22;13810;48.376;10.944;2022-11-20T03:03:12;4.50;99.90
26037;DHT22;13810;48.376;10.944;2022-11-20T03:03:43;4.60;99.90
26037;DHT22;13810;48.376;10.944;2022-11-20T03:04:13;4.60;99.90
26037;DHT22;13810;48.376;10.944;2022-11-20T03:04:44;4.60;99.90
26037;DHT22;13810;48.376;10.944;2022-11-20T03:05:15;4.60;99.90
26037;DHT22;13810;48.376;10.944;2022-11-20T03:05:46;4.60;99.90
26037;DHT22;13810;48.376;10.944;2022-11-20T03:06:16;4.60;99.90
26037;DHT22;13810;48.376;10.944;2022-11-20T03:06:47;4.60;99.90
26037;DHT22;13810;48.376;10.944;2022-11-20T03:07:18;4.60;99.90
26037;DHT22;13810;48.376;10.944;2022-11-20T03:07:48;4.70;99.90
26037;DHT22;13810;48.376;10.944;2022-11-20T03:08:19;4.60;99.90
26037;DHT22;13810;48.376;10.944;2022-11-20T03:08:50;4.60;99.90
26037;DHT22;13810;48.376;10.944;2022-11-20T03:09:20;4.60;99.90
26037;DHT22;13810;48.376;10.944;2022-11-20T03:09:51;4.70;99.90
26037;DHT22;13810;48.376;10.944;2022-11-20T03:10:22;4.70;99.90
26037;DHT22;13810;48.376;10.944;2022-11-20T03:10:53;4.70;99.90
26037;DHT22;13810;48.376;10.944;2022-11-20T03:11:24;4.70;99.90
26037;DHT22;13810;48.376;10.944;2022-11-20T03:11:54;4.70;99.90
26037;DHT22;13810;48.376;10.944;2022-11-20T03:12:25;4.70;99.90
26037;DHT22;13810;48.376;10.944;2022-11-20T03:12:56;4.70;99.90
26037;DHT22;13810;48.376;10.944;2022-11-20T03:13:27;4.70;99.90
26037;DHT22;13810;48.376;10.944;2022-11-20T03:14:01;4.70;99.90
26037;DHT22;13810;48.376;10.944;2022-11-20T03:14:31;4.70;99.90
26037;DHT22;13810;48.376;10.944;2022-11-20T03:15:02;4.70;99.90
26037;DHT22;13810;48.376;10.944;2022-11-20T03:15:33;4.70;99.90
26037;DHT22;13810;48.376;10.944;2022-11-20T03:16:14;4.70;99.90
26037;DHT22;13810;48.376;10.944;2022-11-20T03:16:45;4.70;99.90
26037;DHT22;13810;48.376;10.944;2022-11-20T03:17:16;4.70;99.90
26037;DHT22;13810;48.376;10.944;2022-11-20T03:17:46;4.70;99.90
26037;DHT22;13810;48.376;10.944;2022-11-20T03:18:17;4.70;99.90
26037;DHT22;13810;48.376;10.944;2022-11-20T03:18:48;4.70;99.90
26037;DHT22;13810;48.376;10.944;2022-11-20T03:19:19;4.70;99.90
26037;DHT22;13810;48.376;10.944;2022-11-20T03:19:50;4.80;99.90
26037;DHT22;13810;48.376;10.944;2022-11-20T03:20:21;4.80;99.90
26037;DHT22;13810;48.376;10.944;2022-11-20T03:20:57;4.80;99.90
26037;DHT22;13810;48.376;10.944;2022-11-20T03:21:29;4.80;99.90
26037;DHT22;13810;48.376;10.944;2022-11-20T03:22:00;4.80;99.90
26037;DHT22;13810;48.376;10.944;2022-11-20T03:22:30;4.80;99.90
26037;DHT22;13810;48.376;10.944;2022-11-20T03:23:01;4.80;99.90
26037;DHT22;13810;48.376;10.944;2022-11-20T03:23:33;4.80;99.90
26037;DHT22;13810;48.376;10.944;2022-11-20T03:24:04;4.80;99.90
26037;DHT22;13810;48.376;10.944;2022-11-20T03:24:35;4.80;99.90
26037;DHT22;13810;48.376;10.944;2022-11-20T03:25:06;4.80;99.90
26037;DHT22;13810;48.376;10.944;2022-11-20T03:25:36;4.80;99.90
26037;DHT22;13810;48.376;10.944;2022-11-20T03:26:22;4.80;99.90
26037;DHT22;13810;48.376;10.944;2022-11-20T03:26:53;4.80;99.90
26037;DHT22;13810;48.376;10.944;2022-11-20T03:27:24;4.80;99.90
26037;DHT22;13810;48.376;10.944;2022-11-20T03:27:55;4.80;99.90
26037;DHT22;13810;48.376;10.944;2022-11-20T03:28:25;4.80;99.90
26037;DHT22;13810;48.376;10.944;2022-11-20T03:28:58;4.80;99.90
26037;DHT22;13810;48.376;10.944;2022-11-20T03:29:29;4.80;99.90
26037;DHT22;13810;48.376;10.944;2022-11-20T03:30:00;4.80;99.90
26037;DHT22;13810;48.376;10.944;2022-11-20T03:30:30;4.80;99.90
26037;DHT22;13810;48.376;10.944;2022-11-20T03:31:13;4.80;99.90
26037;DHT22;13810;48.376;10.944;2022-11-20T03:31:44;4.80;99.90
26037;DHT22;13810;48.376;10.944;2022-11-20T03:32:15;4.80;99.90
26037;DHT22;13810;48.376;10.944;2022-11-20T03:32:46;4.80;99.90
26037;DHT22;13810;48.376;10.944;2022-11-20T03:33:16;4.80;99.90
26037;DHT22;13810;48.376;10.944;2022-11-20T03:33:47;4.80;99.90